createdAt,value
2022-08-03T00:00:39.057Z,3.55
2022-08-03T00:01:41.523Z,2.97
2022-08-03T00:02:42.982Z,3.05
2022-08-03T00:03:44.749Z,3.38
2022-08-03T00:04:46.956Z,3.55
2022-08-03T00:06:03.966Z,3.20
2022-08-03T00:07:06.383Z,3.35
2022-08-03T00:08:07.896Z,3.30
2022-08-03T00:09:10.025Z,3.38
2022-08-03T00:10:13.506Z,3.70
2022-08-03T00:11:15.057Z,3.40
2022-08-03T00:12:16.905Z,3.42
2022-08-03T00:13:19.876Z,3.80
2022-08-03T00:14:21.682Z,3.50
2022-08-03T00:15:23.310Z,3.30
2022-08-03T00:16:26.351Z,3.10
2022-08-03T00:17:27.796Z,3.35
2022-08-03T00:18:29.319Z,3.47
2022-08-03T00:19:31.280Z,3.33
2022-08-03T00:20:32.854Z,3.17
2022-08-03T00:21:34.814Z,3.33
2022-08-03T00:22:36.343Z,3.03
2022-08-03T00:23:52.121Z,3.20
2022-08-03T00:24:54.619Z,3.70
2022-08-03T00:25:56.555Z,3.50
2022-08-03T00:26:58.014Z,3.38
2022-08-03T00:27:59.518Z,3.13
2022-08-03T00:29:01.379Z,3.47
2022-08-03T00:30:03.439Z,3.58
2022-08-03T00:31:04.976Z,3.28
2022-08-03T00:32:06.552Z,3.40
2022-08-03T00:33:12.442Z,3.70
2022-08-03T00:34:16.150Z,3.28
2022-08-03T00:35:29.975Z,3.60
2022-08-03T00:36:38.675Z,3.60
2022-08-03T00:37:41.482Z,3.53
2022-08-03T00:38:43.375Z,4.00
2022-08-03T00:39:47.558Z,3.67
2022-08-03T00:40:49.193Z,4.00
2022-08-03T00:41:50.737Z,3.17
2022-08-03T00:42:58.478Z,3.58
2022-08-03T00:43:59.976Z,3.50
2022-08-03T00:45:01.790Z,3.50
2022-08-03T00:46:03.299Z,3.53
2022-08-03T00:47:04.885Z,3.38
2022-08-03T00:48:29.500Z,3.55
2022-08-03T00:49:30.306Z,3.30
2022-08-03T00:50:35.074Z,3.80
2022-08-03T00:51:36.558Z,3.53
2022-08-03T00:52:38.038Z,3.90
2022-08-03T00:53:39.707Z,3.67
2022-08-03T00:54:41.271Z,3.60
2022-08-03T00:55:44.047Z,3.88
2022-08-03T00:56:59.477Z,3.50
2022-08-03T00:58:06.582Z,3.35
2022-08-03T00:59:10.659Z,4.00
2022-08-03T01:00:26.599Z,3.40
2022-08-03T01:01:32.175Z,3.58
2022-08-03T01:02:34.126Z,3.40
2022-08-03T01:03:35.663Z,3.22
2022-08-03T01:04:37.173Z,3.55
2022-08-03T01:06:10.492Z,3.72
2022-08-03T01:07:30.198Z,3.70
2022-08-03T01:08:42.596Z,3.40
2022-08-03T01:10:23.262Z,3.42
2022-08-03T01:12:00.935Z,3.50
2022-08-03T01:13:59.910Z,3.60
2022-08-03T01:14:54.691Z,3.20
2022-08-03T01:16:14.888Z,3.40
2022-08-03T01:17:25.255Z,3.13
2022-08-03T01:18:43.729Z,3.30
2022-08-03T01:20:08.675Z,3.55
2022-08-03T01:21:14.660Z,3.40
2022-08-03T01:22:37.141Z,3.65
2022-08-03T01:24:03.800Z,3.22
2022-08-03T01:25:24.802Z,3.30
2022-08-03T01:26:44.851Z,3.50
2022-08-03T01:28:02.768Z,3.03
2022-08-03T01:29:17.312Z,3.60
2022-08-03T01:30:19.992Z,3.30
2022-08-03T01:31:26.196Z,3.60
2022-08-03T01:32:59.365Z,3.20
2022-08-03T01:34:00.462Z,3.47
2022-08-03T01:35:11.069Z,3.50
2022-08-03T01:36:22.553Z,3.60
2022-08-03T01:37:28.084Z,3.08
2022-08-03T01:38:33.739Z,3.35
2022-08-03T01:39:38.182Z,3.38
2022-08-03T01:40:41.679Z,3.40
2022-08-03T01:41:53.344Z,3.80
2022-08-03T01:42:57.521Z,3.50
2022-08-03T01:44:29.986Z,3.50
2022-08-03T01:45:25.035Z,3.33
2022-08-03T01:46:26.943Z,3.45
2022-08-03T01:47:30.544Z,3.30
2022-08-03T01:48:33.244Z,3.85
2022-08-03T01:49:39.467Z,3.78
2022-08-03T01:50:42.449Z,3.45
2022-08-03T01:51:58.384Z,3.40
2022-08-03T01:53:09.273Z,3.75
2022-08-03T01:54:12.637Z,3.58
2022-08-03T01:55:19.276Z,3.45
2022-08-03T01:56:24.262Z,2.83
2022-08-03T01:57:29.109Z,3.55
2022-08-03T01:58:33.659Z,3.50
2022-08-03T01:59:37.516Z,3.80
2022-08-03T02:00:40.935Z,3.60
2022-08-03T02:02:29.788Z,3.55
2022-08-03T02:03:07.190Z,3.97
2022-08-03T02:04:10.863Z,3.70
2022-08-03T02:05:14.760Z,3.75
2022-08-03T02:07:01.813Z,3.25
2022-08-03T02:07:43.066Z,3.88
2022-08-03T02:08:45.360Z,3.20
2022-08-03T02:09:51.630Z,3.50
2022-08-03T02:10:57.599Z,3.67
2022-08-03T02:12:00.766Z,3.25
2022-08-03T02:13:04.305Z,3.45
2022-08-03T02:14:06.673Z,3.60
2022-08-03T02:15:09.300Z,3.50
2022-08-03T02:16:14.390Z,3.40
2022-08-03T02:17:16.253Z,3.47
2022-08-03T02:18:19.044Z,3.50
2022-08-03T02:19:21.690Z,3.78
2022-08-03T02:20:24.567Z,3.40
2022-08-03T02:22:49.619Z,3.75
2022-08-03T02:23:51.080Z,3.60
2022-08-03T02:24:52.535Z,3.47
2022-08-03T02:25:59.874Z,3.47
2022-08-03T02:27:06.042Z,3.60
2022-08-03T02:28:15.875Z,3.33
2022-08-03T02:29:21.770Z,3.67
2022-08-03T02:30:45.828Z,3.42
2022-08-03T02:31:58.138Z,3.70
2022-08-03T02:33:02.034Z,3.67
2022-08-03T02:34:08.750Z,3.65
2022-08-03T02:35:13.323Z,3.70
2022-08-03T02:36:20.037Z,3.90
2022-08-03T02:37:23.862Z,3.70
2022-08-03T02:38:31.288Z,3.88
2022-08-03T02:39:35.672Z,3.90
2022-08-03T02:40:39.616Z,4.00
2022-08-03T02:41:52.992Z,3.33
2022-08-03T02:42:57.978Z,3.80
2022-08-03T02:44:06.965Z,3.70
2022-08-03T02:45:14.902Z,3.60
2022-08-03T02:46:20.153Z,3.67
2022-08-03T02:47:22.560Z,3.60
2022-08-03T02:48:28.650Z,3.53
2022-08-03T02:49:40.551Z,3.58
2022-08-03T02:50:54.783Z,3.60
2022-08-03T02:51:59.316Z,3.80
2022-08-03T02:53:03.019Z,3.53
2022-08-03T02:54:06.407Z,3.65
2022-08-03T02:55:10.921Z,3.50
2022-08-03T02:56:14.773Z,3.40
2022-08-03T02:57:18.929Z,3.60
2022-08-03T02:58:23.596Z,3.70
2022-08-03T02:59:27.570Z,3.90
2022-08-03T03:00:31.906Z,3.63
2022-08-03T03:01:34.245Z,3.80
2022-08-03T03:02:37.066Z,3.60
2022-08-03T03:05:52.133Z,3.60
2022-08-03T03:06:13.415Z,3.90
2022-08-03T03:07:17.976Z,3.80
2022-08-03T03:08:26.858Z,3.63
2022-08-03T03:09:41.492Z,3.53
2022-08-03T03:10:45.195Z,3.60
2022-08-03T03:11:49.322Z,3.92
2022-08-03T03:12:55.163Z,3.78
2022-08-03T03:13:57.561Z,3.70
2022-08-03T03:14:59.085Z,3.50
2022-08-03T03:16:02.562Z,4.00
2022-08-03T03:17:05.284Z,3.55
2022-08-03T03:18:09.989Z,3.60
2022-08-03T03:19:14.188Z,3.90
2022-08-03T03:20:16.022Z,4.10
2022-08-03T03:21:33.468Z,4.30
2022-08-03T03:22:36.126Z,4.00
2022-08-03T03:23:39.942Z,4.45
2022-08-03T03:24:44.075Z,4.20
2022-08-03T03:25:46.031Z,4.07
2022-08-03T03:26:49.112Z,3.80
2022-08-03T03:27:51.181Z,3.88
2022-08-03T03:28:52.885Z,3.58
2022-08-03T03:29:54.694Z,3.72
2022-08-03T03:30:56.510Z,3.88
2022-08-03T03:31:58.423Z,3.65
2022-08-03T03:33:02.983Z,3.80
2022-08-03T03:34:05.135Z,3.92
2022-08-03T03:35:09.729Z,3.88
2022-08-03T03:36:11.599Z,3.50
2022-08-03T03:37:13.097Z,3.67
2022-08-03T03:38:14.649Z,3.83
2022-08-03T03:39:16.245Z,3.90
2022-08-03T03:40:17.836Z,4.00
2022-08-03T03:41:19.773Z,3.85
2022-08-03T03:42:22.336Z,3.72
2022-08-03T03:43:24.835Z,3.70
2022-08-03T03:44:28.629Z,3.28
2022-08-03T03:45:31.097Z,3.60
2022-08-03T03:46:33.276Z,3.80
2022-08-03T03:47:35.837Z,3.25
2022-08-03T03:48:38.887Z,3.65
2022-08-03T03:49:42.939Z,3.65
2022-08-03T03:50:45.570Z,3.95
2022-08-03T03:51:47.392Z,3.80
2022-08-03T03:52:48.853Z,3.85
2022-08-03T03:54:01.985Z,3.85
2022-08-03T03:55:03.820Z,3.70
2022-08-03T03:56:05.698Z,3.75
2022-08-03T03:57:07.234Z,4.25
2022-08-03T03:58:09.052Z,3.90
2022-08-03T03:59:10.910Z,3.80
2022-08-03T04:00:15.269Z,3.92
2022-08-03T04:01:17.671Z,3.55
2022-08-03T04:02:19.165Z,3.70
2022-08-03T04:03:20.676Z,3.65
2022-08-03T04:04:40.863Z,4.10
2022-08-03T04:06:01.753Z,3.60
2022-08-03T04:07:22.227Z,3.85
2022-08-03T04:08:41.988Z,3.83
2022-08-03T04:10:08.789Z,3.65
2022-08-03T04:11:38.604Z,3.60
2022-08-03T04:12:50.150Z,3.90
2022-08-03T04:14:05.243Z,3.97
2022-08-03T04:15:08.074Z,3.63
2022-08-03T04:16:14.837Z,3.78
2022-08-03T04:17:17.330Z,4.40
2022-08-03T04:18:20.065Z,3.88
2022-08-03T04:19:35.170Z,3.72
2022-08-03T04:21:43.732Z,3.60
2022-08-03T04:22:47.988Z,3.88
2022-08-03T04:23:53.032Z,3.60
2022-08-03T04:25:01.082Z,3.90
2022-08-03T04:26:05.488Z,4.13
2022-08-03T04:27:09.464Z,4.25
2022-08-03T04:28:30.486Z,4.38
2022-08-03T04:29:34.976Z,4.07
2022-08-03T04:30:47.495Z,4.38
2022-08-03T04:32:51.956Z,3.83
2022-08-03T04:33:54.573Z,4.32
2022-08-03T04:34:56.232Z,4.18
2022-08-03T04:36:02.915Z,3.85
2022-08-03T04:37:13.183Z,4.43
2022-08-03T04:38:18.485Z,4.05
2022-08-03T04:39:25.653Z,3.53
2022-08-03T04:40:37.080Z,4.30
2022-08-03T04:42:07.188Z,3.90
2022-08-03T04:43:02.297Z,4.07
2022-08-03T04:45:08.062Z,3.80
2022-08-03T04:46:11.088Z,4.22
2022-08-03T04:47:12.917Z,3.80
2022-08-03T04:48:15.400Z,4.03
2022-08-03T04:49:17.423Z,4.10
2022-08-03T04:50:21.662Z,4.10
2022-08-03T04:51:23.624Z,4.22
2022-08-03T04:52:25.487Z,3.95
2022-08-03T04:53:27.020Z,4.13
2022-08-03T04:54:28.532Z,3.92
2022-08-03T04:55:32.026Z,4.07
2022-08-03T04:56:34.681Z,4.53
2022-08-03T04:57:36.208Z,4.45
2022-08-03T04:58:37.729Z,4.22
2022-08-03T04:59:40.941Z,4.07
2022-08-03T05:00:43.068Z,3.80
2022-08-03T05:01:44.688Z,3.80
2022-08-03T05:02:46.581Z,4.40
2022-08-03T05:03:48.058Z,4.07
2022-08-03T05:04:49.638Z,4.00
2022-08-03T05:06:01.859Z,4.20
2022-08-03T05:07:12.638Z,3.85
2022-08-03T05:08:14.193Z,3.85
2022-08-03T05:09:16.072Z,3.90
2022-08-03T05:10:37.535Z,3.80
2022-08-03T05:11:38.987Z,3.88
2022-08-03T05:12:41.325Z,3.70
2022-08-03T05:13:43.731Z,3.85
2022-08-03T05:14:45.170Z,3.72
2022-08-03T05:15:46.616Z,4.15
2022-08-03T05:16:48.060Z,4.28
2022-08-03T05:17:49.904Z,4.18
2022-08-03T05:18:51.431Z,3.97
2022-08-03T05:19:52.933Z,3.83
2022-08-03T05:20:54.361Z,4.10
2022-08-03T05:21:55.846Z,4.40
2022-08-03T05:22:58.231Z,4.30
2022-08-03T05:24:01.252Z,3.90
2022-08-03T05:25:04.008Z,4.10
2022-08-03T05:26:05.574Z,4.05
2022-08-03T05:27:07.001Z,3.90
2022-08-03T05:28:08.766Z,3.50
2022-08-03T05:29:10.253Z,4.15
2022-08-03T05:30:32.287Z,3.90
2022-08-03T05:31:33.479Z,3.80
2022-08-03T05:32:35.294Z,4.00
2022-08-03T05:33:36.762Z,3.97
2022-08-03T05:34:39.008Z,4.15
2022-08-03T05:36:02.677Z,3.75
2022-08-03T05:37:02.396Z,3.80
2022-08-03T05:38:04.206Z,3.63
2022-08-03T05:39:07.290Z,3.78
2022-08-03T05:40:09.396Z,3.67
2022-08-03T05:41:22.683Z,3.80
2022-08-03T05:42:25.827Z,3.70
2022-08-03T05:43:27.404Z,3.80
2022-08-03T05:44:29.155Z,3.78
2022-08-03T05:45:32.170Z,3.88
2022-08-03T05:46:33.625Z,3.70
2022-08-03T05:47:35.392Z,4.15
2022-08-03T05:48:36.854Z,3.88
2022-08-03T05:49:38.410Z,3.90
2022-08-03T05:50:42.764Z,4.13
2022-08-03T05:51:44.750Z,4.60
2022-08-03T05:52:47.035Z,4.50
2022-08-03T05:53:48.981Z,4.60
2022-08-03T05:54:55.819Z,3.88
2022-08-03T05:56:02.502Z,3.75
2022-08-03T05:57:17.447Z,3.38
2022-08-03T05:58:19.026Z,3.70
2022-08-03T05:59:37.653Z,3.80
2022-08-03T06:00:39.783Z,4.13
2022-08-03T06:01:41.307Z,3.83
2022-08-03T06:02:43.350Z,3.80
2022-08-03T06:03:45.900Z,3.47
2022-08-03T06:04:47.357Z,3.72
2022-08-03T06:05:55.545Z,3.45
2022-08-03T06:07:02.269Z,3.90
2022-08-03T06:08:04.015Z,3.20
2022-08-03T06:09:05.591Z,3.53
2022-08-03T06:10:36.753Z,3.60
2022-08-03T06:11:29.210Z,3.80
2022-08-03T06:12:31.463Z,3.50
2022-08-03T06:13:33.116Z,3.35
2022-08-03T06:14:34.584Z,3.03
2022-08-03T06:15:36.443Z,3.20
2022-08-03T06:16:37.992Z,3.35
2022-08-03T06:17:50.202Z,3.42
2022-08-03T06:18:51.683Z,3.72
2022-08-03T06:19:53.838Z,3.60
2022-08-03T06:20:55.762Z,3.42
2022-08-03T06:21:57.226Z,3.30
2022-08-03T06:23:00.502Z,3.80
2022-08-03T06:24:03.022Z,3.60
2022-08-03T06:25:11.270Z,3.35
2022-08-03T06:26:14.573Z,3.42
2022-08-03T06:27:16.473Z,4.00
2022-08-03T06:28:51.482Z,3.90
2022-08-03T06:29:40.154Z,3.75
2022-08-03T06:30:41.939Z,3.80
2022-08-03T06:31:43.439Z,3.70
2022-08-03T06:32:52.195Z,3.45
2022-08-03T06:34:33.748Z,3.33
2022-08-03T06:35:16.302Z,3.40
2022-08-03T06:36:17.782Z,3.40
2022-08-03T06:37:19.243Z,3.08
2022-08-03T06:38:21.217Z,3.75
2022-08-03T06:39:23.526Z,3.72
2022-08-03T06:40:29.813Z,3.22
2022-08-03T06:41:31.463Z,3.88
2022-08-03T06:42:39.548Z,3.90
2022-08-03T06:44:03.379Z,3.53
2022-08-03T06:45:04.057Z,3.67
2022-08-03T06:46:05.729Z,3.72
2022-08-03T06:47:07.205Z,3.60
2022-08-03T06:48:13.271Z,2.95
2022-08-03T06:49:14.787Z,4.10
2022-08-03T06:50:21.762Z,3.92
2022-08-03T06:52:05.656Z,3.92
2022-08-03T06:52:47.909Z,3.70
2022-08-03T06:53:49.929Z,3.33
2022-08-03T06:54:51.402Z,3.20
2022-08-03T06:55:54.833Z,3.50
2022-08-03T06:56:56.940Z,3.63
2022-08-03T06:57:59.305Z,3.50
2022-08-03T06:59:05.342Z,3.58
2022-08-03T07:00:12.280Z,3.85
2022-08-03T07:01:14.128Z,3.67
2022-08-03T07:02:20.389Z,3.47
2022-08-03T07:03:22.321Z,3.50
2022-08-03T07:04:23.782Z,3.50
2022-08-03T07:05:25.749Z,3.70
2022-08-03T07:06:27.373Z,3.45
2022-08-03T07:07:28.837Z,3.60
2022-08-03T07:08:33.338Z,3.78
2022-08-03T07:09:35.466Z,3.60
2022-08-03T07:10:37.233Z,3.13
2022-08-03T07:11:38.719Z,3.47
2022-08-03T07:12:56.194Z,3.40
2022-08-03T07:13:58.473Z,3.55
2022-08-03T07:15:02.631Z,3.53
2022-08-03T07:16:05.019Z,3.40
2022-08-03T07:17:11.442Z,3.60
2022-08-03T07:18:13.893Z,3.50
2022-08-03T07:19:15.615Z,3.10
2022-08-03T07:20:18.351Z,3.40
2022-08-03T07:21:19.831Z,3.45
2022-08-03T07:22:21.310Z,3.38
2022-08-03T07:23:23.081Z,2.92
2022-08-03T07:24:24.692Z,2.90
2022-08-03T07:25:28.968Z,3.20
2022-08-03T07:26:30.584Z,3.55
2022-08-03T07:27:32.229Z,3.25
2022-08-03T07:28:34.084Z,3.40
2022-08-03T07:29:36.009Z,3.25
2022-08-03T07:30:37.501Z,3.15
2022-08-03T07:31:38.961Z,3.00
2022-08-03T07:32:49.730Z,3.25
2022-08-03T07:33:52.759Z,3.20
2022-08-03T07:34:59.925Z,3.20
2022-08-03T07:36:02.296Z,2.92
2022-08-03T07:37:03.826Z,3.50
2022-08-03T07:38:05.351Z,3.28
2022-08-03T07:39:16.619Z,2.90
2022-08-03T07:40:20.111Z,2.92
2022-08-03T07:41:21.591Z,2.65
2022-08-03T07:42:26.232Z,3.20
2022-08-03T07:43:27.994Z,2.92
2022-08-03T07:44:29.468Z,3.03
2022-08-03T07:45:31.770Z,3.20
2022-08-03T07:46:33.442Z,3.10
2022-08-03T07:47:36.029Z,2.90
2022-08-03T07:49:41.154Z,3.45
2022-08-03T07:50:42.873Z,2.80
2022-08-03T07:51:44.411Z,3.20
2022-08-03T07:52:49.350Z,3.20
2022-08-03T07:53:51.160Z,2.95
2022-08-03T07:54:54.570Z,2.90
2022-08-03T07:55:56.985Z,3.60
2022-08-03T07:56:58.431Z,3.30
2022-08-03T07:58:05.577Z,3.15
2022-08-03T07:59:07.083Z,3.08
2022-08-03T08:00:15.965Z,2.97
2022-08-03T08:02:20.980Z,2.80
2022-08-03T08:03:23.569Z,2.80
2022-08-03T08:04:25.036Z,2.85
2022-08-03T08:05:26.708Z,2.70
2022-08-03T08:06:28.148Z,3.10
2022-08-03T08:07:29.895Z,3.00
2022-08-03T08:08:31.867Z,2.72
2022-08-03T08:09:34.184Z,2.65
2022-08-03T08:10:37.049Z,3.10
2022-08-03T08:11:40.084Z,2.95
2022-08-03T08:12:41.760Z,3.08
2022-08-03T08:13:43.226Z,2.70
2022-08-03T08:14:47.565Z,3.10
2022-08-03T08:15:49.013Z,2.72
2022-08-03T08:16:51.920Z,3.00
2022-08-03T08:17:59.042Z,2.70
2022-08-03T08:19:02.021Z,2.90
2022-08-03T08:20:03.830Z,3.10
2022-08-03T08:21:08.750Z,2.83
2022-08-03T08:22:10.255Z,3.10
2022-08-03T08:24:34.903Z,2.78
2022-08-03T08:25:38.473Z,2.90
2022-08-03T08:26:39.963Z,3.10
2022-08-03T08:28:29.417Z,3.38
2022-08-03T08:29:07.326Z,2.88
2022-08-03T08:30:12.175Z,3.05
2022-08-03T08:31:13.778Z,2.83
2022-08-03T08:32:16.418Z,2.72
2022-08-03T08:34:26.233Z,2.88
2022-08-03T08:35:27.891Z,3.00
2022-08-03T08:36:29.315Z,2.88
2022-08-03T08:37:30.801Z,2.60
2022-08-03T08:38:34.776Z,2.88
2022-08-03T08:39:36.221Z,3.03
2022-08-03T08:40:37.660Z,3.20
2022-08-03T08:41:39.231Z,3.00
2022-08-03T08:42:58.094Z,3.40
2022-08-03T08:44:01.066Z,2.95
2022-08-03T08:45:05.202Z,2.80
2022-08-03T08:46:11.998Z,2.97
2022-08-03T08:47:14.853Z,3.10
2022-08-03T08:48:20.488Z,2.72
2022-08-03T08:49:26.226Z,2.92
2022-08-03T08:50:28.504Z,2.83
2022-08-03T08:51:51.040Z,3.00
2022-08-03T08:53:01.047Z,2.90
2022-08-03T08:54:04.606Z,2.80
2022-08-03T08:55:08.387Z,2.72
2022-08-03T08:56:17.460Z,2.88
2022-08-03T08:57:40.667Z,2.83
2022-08-03T08:58:49.533Z,2.72
2022-08-03T08:59:57.167Z,2.92
2022-08-03T09:00:59.058Z,2.80
2022-08-03T09:02:01.180Z,2.58
2022-08-03T09:03:03.081Z,2.88
2022-08-03T09:04:07.350Z,2.85
2022-08-03T09:05:16.676Z,2.58
2022-08-03T09:06:18.093Z,2.63
2022-08-03T09:07:20.734Z,2.70
2022-08-03T09:08:23.231Z,3.08
2022-08-03T09:10:04.621Z,2.90
2022-08-03T09:10:46.488Z,2.42
2022-08-03T09:12:00.378Z,3.00
2022-08-03T09:13:10.576Z,3.40
2022-08-03T09:14:36.727Z,2.85
2022-08-03T09:15:34.130Z,2.78
2022-08-03T09:16:35.615Z,2.63
2022-08-03T09:17:41.086Z,2.70
2022-08-03T09:18:45.616Z,2.70
2022-08-03T09:20:10.247Z,2.72
2022-08-03T09:21:30.676Z,2.88
2022-08-03T09:22:33.512Z,3.00
2022-08-03T09:24:02.294Z,2.80
2022-08-03T09:25:23.915Z,2.80
2022-08-03T09:26:28.544Z,2.63
2022-08-03T09:27:42.622Z,3.00
2022-08-03T09:28:59.736Z,2.72
2022-08-03T09:30:33.559Z,2.78
2022-08-03T09:31:43.367Z,2.92
2022-08-03T09:32:46.322Z,2.83
2022-08-03T09:33:48.746Z,2.75
2022-08-03T09:34:56.538Z,2.70
2022-08-03T09:35:59.801Z,2.80
2022-08-03T09:37:01.311Z,2.78
2022-08-03T09:38:14.591Z,2.95
2022-08-03T09:39:40.991Z,3.25
2022-08-03T09:40:44.848Z,2.92
2022-08-03T09:41:48.794Z,2.90
2022-08-03T09:42:57.034Z,2.70
2022-08-03T09:43:59.087Z,2.75
2022-08-03T09:45:01.760Z,2.90
2022-08-03T09:46:07.747Z,2.97
2022-08-03T09:47:10.953Z,3.05
2022-08-03T09:48:35.025Z,2.90
2022-08-03T09:49:38.794Z,2.83
2022-08-03T09:50:57.135Z,2.63
2022-08-03T09:52:33.020Z,2.15
2022-08-03T09:53:51.492Z,2.33
2022-08-03T09:55:04.218Z,2.22
2022-08-03T09:56:33.783Z,2.20
2022-08-03T09:57:28.846Z,2.20
2022-08-03T09:58:31.329Z,1.92
2022-08-03T09:59:34.029Z,2.00
2022-08-03T10:01:04.473Z,2.10
2022-08-03T10:02:25.083Z,2.15
2022-08-03T10:03:29.242Z,2.10
2022-08-03T10:04:30.833Z,2.10
2022-08-03T10:05:33.476Z,2.00
2022-08-03T10:06:35.055Z,2.08
2022-08-03T10:07:47.641Z,1.92
2022-08-03T10:09:24.830Z,1.90
2022-08-03T10:10:29.322Z,1.70
2022-08-03T10:11:40.929Z,1.80
2022-08-03T10:12:44.961Z,2.00
2022-08-03T10:13:47.595Z,2.00
2022-08-03T10:14:49.430Z,2.17
2022-08-03T10:16:24.987Z,2.08
2022-08-03T10:17:13.363Z,2.10
2022-08-03T10:18:14.967Z,2.15
2022-08-03T10:19:17.438Z,1.90
2022-08-03T10:20:19.386Z,2.10
2022-08-03T10:21:21.582Z,1.95
2022-08-03T10:22:24.445Z,1.92
2022-08-03T10:23:27.834Z,1.90
2022-08-03T10:24:34.033Z,1.98
2022-08-03T10:25:38.100Z,1.75
2022-08-03T10:26:49.746Z,1.70
2022-08-03T10:27:53.126Z,2.00
2022-08-03T10:28:58.981Z,1.60
2022-08-03T10:30:09.323Z,1.88
2022-08-03T10:31:13.071Z,2.00
2022-08-03T10:32:21.440Z,2.03
2022-08-03T10:33:51.298Z,2.30
2022-08-03T10:35:00.325Z,2.13
2022-08-03T10:36:07.731Z,2.30
2022-08-03T10:37:12.451Z,2.22
2022-08-03T10:38:19.892Z,2.20
2022-08-03T10:39:24.112Z,2.40
2022-08-03T10:41:51.815Z,2.25
2022-08-03T10:42:56.643Z,2.35
2022-08-03T10:44:10.845Z,2.22
2022-08-03T10:45:20.871Z,2.40
2022-08-03T10:46:22.420Z,2.10
2022-08-03T10:47:24.280Z,2.30
2022-08-03T10:48:26.763Z,2.25
2022-08-03T10:49:34.557Z,2.30
2022-08-03T10:50:37.344Z,2.15
2022-08-03T10:51:39.356Z,2.42
2022-08-03T10:52:57.815Z,2.40
2022-08-03T10:54:01.794Z,2.50
2022-08-03T10:55:48.849Z,2.00
2022-08-03T10:57:14.747Z,2.22
2022-08-03T10:58:53.139Z,2.30
2022-08-03T11:00:00.613Z,2.13
2022-08-03T11:01:03.349Z,2.13
2022-08-03T11:02:08.316Z,2.00
2022-08-03T11:03:10.982Z,2.20
2022-08-03T11:05:33.089Z,2.45
2022-08-03T11:06:37.572Z,2.50
2022-08-03T11:07:39.347Z,2.10
2022-08-03T11:08:41.035Z,2.42
2022-08-03T11:09:44.173Z,2.38
2022-08-03T11:10:46.929Z,2.38
2022-08-03T11:11:48.920Z,2.30
2022-08-03T11:12:50.783Z,2.13
2022-08-03T11:14:07.623Z,2.53
2022-08-03T11:15:09.399Z,2.15
2022-08-03T11:16:22.338Z,2.10
2022-08-03T11:17:24.677Z,2.13
2022-08-03T11:18:26.976Z,2.17
2022-08-03T11:19:57.971Z,2.30
2022-08-03T11:21:01.617Z,2.50
2022-08-03T11:22:03.360Z,2.30
2022-08-03T11:23:05.257Z,2.10
2022-08-03T11:24:07.146Z,2.10
2022-08-03T11:25:08.842Z,1.95
2022-08-03T11:26:30.667Z,2.00
2022-08-03T11:27:35.918Z,1.80
2022-08-03T11:28:41.096Z,2.00
2022-08-03T11:30:06.559Z,2.10
2022-08-03T11:31:47.960Z,1.88
2022-08-03T11:32:46.830Z,1.73
2022-08-03T11:34:07.106Z,1.80
2022-08-03T11:35:21.954Z,1.73
2022-08-03T11:37:34.949Z,1.90
2022-08-03T11:39:16.957Z,1.90
2022-08-03T11:40:40.426Z,2.00
2022-08-03T11:41:45.364Z,2.00
2022-08-03T11:42:48.442Z,2.08
2022-08-03T11:43:49.971Z,2.00
2022-08-03T11:44:56.454Z,2.00
2022-08-03T11:45:58.019Z,1.95
2022-08-03T11:47:00.722Z,3.95
2022-08-03T11:49:23.642Z,1.90
2022-08-03T11:50:25.763Z,2.38
2022-08-03T11:51:29.189Z,1.95
2022-08-03T11:52:40.110Z,1.95
2022-08-03T11:53:43.891Z,1.67
2022-08-03T11:54:46.902Z,1.63
2022-08-03T11:55:49.046Z,1.90
2022-08-03T11:56:51.022Z,1.70
2022-08-03T11:59:15.256Z,1.92
2022-08-03T11:59:19.989Z,1.50
2022-08-03T12:00:31.935Z,1.65
2022-08-03T12:01:33.621Z,1.75
2022-08-03T12:02:35.462Z,1.90
2022-08-03T12:03:37.335Z,1.60
2022-08-03T12:04:52.209Z,1.70
2022-08-03T12:05:54.783Z,1.83
2022-08-03T12:08:04.373Z,1.55
2022-08-03T12:09:16.872Z,1.67
2022-08-03T12:10:18.449Z,1.60
2022-08-03T12:11:20.043Z,1.52
2022-08-03T12:12:21.758Z,1.48
2022-08-03T12:14:35.673Z,1.45
2022-08-03T12:14:58.447Z,1.90
2022-08-03T12:17:01.796Z,1.48
2022-08-03T12:18:13.142Z,1.58
2022-08-03T12:19:14.997Z,1.52
2022-08-03T12:20:35.006Z,1.45
2022-08-03T12:21:57.225Z,1.60
2022-08-03T12:23:04.502Z,2.00
2022-08-03T12:24:06.449Z,2.00
2022-08-03T12:25:09.523Z,1.63
2022-08-03T12:26:11.193Z,1.80
2022-08-03T12:27:12.801Z,1.73
2022-08-03T12:28:36.582Z,1.80
2022-08-03T12:29:39.474Z,2.05
2022-08-03T12:30:41.665Z,1.83
2022-08-03T12:31:43.207Z,1.90
2022-08-03T12:32:45.034Z,1.90
2022-08-03T12:33:58.745Z,1.70
2022-08-03T12:35:02.125Z,1.90
2022-08-03T12:36:07.112Z,1.80
2022-08-03T12:37:22.349Z,1.65
2022-08-03T12:38:24.392Z,1.52
2022-08-03T12:39:31.360Z,1.80
2022-08-03T12:40:33.047Z,1.90
2022-08-03T12:41:39.151Z,1.83
2022-08-03T12:42:40.957Z,1.70
2022-08-03T12:43:49.558Z,1.73
2022-08-03T12:44:51.232Z,1.85
2022-08-03T12:46:12.611Z,1.70
2022-08-03T12:47:15.828Z,1.52
2022-08-03T12:48:17.302Z,1.75
2022-08-03T12:49:19.877Z,1.52
2022-08-03T12:50:36.083Z,1.70
2022-08-03T12:52:03.919Z,1.60
2022-08-03T12:53:10.013Z,1.42
2022-08-03T12:54:24.814Z,1.67
2022-08-03T12:55:57.767Z,1.50
2022-08-03T12:57:16.052Z,1.70
2022-08-03T12:58:34.196Z,1.77
2022-08-03T12:59:53.551Z,2.17
2022-08-03T13:00:56.159Z,1.70
2022-08-03T13:01:58.249Z,2.00
2022-08-03T13:04:33.742Z,2.15
2022-08-03T13:05:45.141Z,1.65
2022-08-03T13:06:57.978Z,1.75
2022-08-03T13:08:04.980Z,1.70
2022-08-03T13:09:08.583Z,1.65
2022-08-03T13:10:10.947Z,1.50
2022-08-03T13:11:23.489Z,1.70
2022-08-03T13:12:49.564Z,1.80
2022-08-03T13:13:52.967Z,1.70
2022-08-03T13:14:59.979Z,1.80
2022-08-03T13:16:01.491Z,1.88
2022-08-03T13:17:03.989Z,1.70
2022-08-03T13:18:05.587Z,1.73
2022-08-03T13:19:15.589Z,1.63
2022-08-03T13:20:17.560Z,1.58
2022-08-03T13:21:20.957Z,1.70
2022-08-03T13:22:24.871Z,1.50
2022-08-03T13:23:26.417Z,1.70
2022-08-03T13:24:27.982Z,1.45
2022-08-03T13:25:31.950Z,1.70
2022-08-03T13:26:33.402Z,1.50
2022-08-03T13:28:03.979Z,1.65
2022-08-03T13:28:56.287Z,1.50
2022-08-03T13:29:57.918Z,1.50
2022-08-03T13:30:59.469Z,1.80
2022-08-03T13:32:02.824Z,1.67
2022-08-03T13:33:04.271Z,1.73
2022-08-03T13:34:06.069Z,1.80
2022-08-03T13:35:09.101Z,1.70
2022-08-03T13:36:10.530Z,1.98
2022-08-03T13:37:12.386Z,1.90
2022-08-03T13:38:15.334Z,1.67
2022-08-03T13:39:20.258Z,1.52
2022-08-03T13:40:23.644Z,1.77
2022-08-03T13:41:31.534Z,1.65
2022-08-03T13:42:35.554Z,1.70
2022-08-03T13:43:37.478Z,1.60
2022-08-03T13:44:38.956Z,1.70
2022-08-03T13:45:40.418Z,1.60
2022-08-03T13:46:42.095Z,1.63
2022-08-03T13:47:43.606Z,1.60
2022-08-03T13:48:45.426Z,1.58
2022-08-03T13:49:56.987Z,1.60
2022-08-03T13:51:11.864Z,1.58
2022-08-03T13:52:23.661Z,1.52
2022-08-03T13:53:25.156Z,1.63
2022-08-03T13:54:27.189Z,1.60
2022-08-03T13:55:28.648Z,1.73
2022-08-03T13:56:30.782Z,1.73
2022-08-03T13:58:11.433Z,1.42
2022-08-03T13:58:54.601Z,1.60
2022-08-03T13:59:56.117Z,1.80
2022-08-03T14:00:57.622Z,1.60
2022-08-03T14:01:59.283Z,1.58
2022-08-03T14:03:09.067Z,1.63
2022-08-03T14:04:15.753Z,1.70
2022-08-03T14:05:24.169Z,1.60
2022-08-03T14:06:26.077Z,1.50
2022-08-03T14:07:27.537Z,1.65
2022-08-03T14:08:29.157Z,1.70
2022-08-03T14:09:30.939Z,1.80
2022-08-03T14:10:41.242Z,1.50
2022-08-03T14:12:06.832Z,1.52
2022-08-03T14:13:06.853Z,1.50
2022-08-03T14:14:08.825Z,1.60
2022-08-03T14:15:12.996Z,1.60
2022-08-03T14:16:16.935Z,1.52
2022-08-03T14:17:19.226Z,1.60
2022-08-03T14:18:29.239Z,1.50
2022-08-03T14:19:44.888Z,1.88
2022-08-03T14:20:56.776Z,1.70
2022-08-03T14:22:03.689Z,1.42
2022-08-03T14:24:10.523Z,1.70
2022-08-03T14:25:12.009Z,1.60
2022-08-03T14:26:15.296Z,1.63
2022-08-03T14:27:16.892Z,1.63
2022-08-03T14:28:19.699Z,1.70
2022-08-03T14:29:21.542Z,1.60
2022-08-03T14:30:23.009Z,1.83
2022-08-03T14:32:11.291Z,1.67
2022-08-03T14:32:47.939Z,1.65
2022-08-03T14:33:49.720Z,1.60
2022-08-03T14:34:51.218Z,1.67
2022-08-03T14:35:53.101Z,1.60
2022-08-03T14:36:54.573Z,1.52
2022-08-03T14:37:56.028Z,1.80
2022-08-03T14:39:01.238Z,1.60
2022-08-03T14:40:04.155Z,1.85
2022-08-03T14:42:07.259Z,1.50
2022-08-03T14:43:08.881Z,1.60
2022-08-03T14:44:10.715Z,1.70
2022-08-03T14:45:20.080Z,1.77
2022-08-03T14:46:22.502Z,1.60
2022-08-03T14:47:24.260Z,1.70
2022-08-03T14:50:30.058Z,1.70
2022-08-03T14:50:34.780Z,1.63
2022-08-03T14:51:10.664Z,1.50
2022-08-03T14:52:12.722Z,1.60
2022-08-03T14:53:14.689Z,1.60
2022-08-03T14:54:16.542Z,1.60
2022-08-03T14:55:19.933Z,1.60
2022-08-03T14:56:21.415Z,1.40
2022-08-03T14:57:23.217Z,1.80
2022-08-03T14:58:26.339Z,1.85
2022-08-03T14:59:27.985Z,1.40
2022-08-03T15:00:51.074Z,1.70
2022-08-03T15:02:04.973Z,1.80
2022-08-03T15:03:09.262Z,1.63
2022-08-03T15:04:11.177Z,1.85
2022-08-03T15:05:14.430Z,1.52